Los Angeles, CA

8:12 AM PST on March 06, 2015 (GMT -0800)
Los Angeles International | Change Station
CLOSE
Current Station
Airport
Location: Los Angeles,
Elevation: 105 ft
Nearby Weather Stations
Active Advisory: Wind Advisory Active Notice: Record Report, Public Information Statement

Elev 105 ft 33.94 °N, 118.39 °W | Updated 19 minutes ago

Clear
Clear
61 °F
Feels Like 61 °F
N
4
Wind Variable Wind from NNE

Today
High -- | Low -- °F
--% Chance of Precip.
Yesterday
High -- | Low -- °F
Precip. -- in
6:15 AM 5:53 PM
Full, 99% visible
Pressure 30.15 in
Visibility 10.0 miles
Clouds Clear
Dew Point 25 °F
Humidity 25%
Rainfall 0.00 in
Snow Depth Not available.
UV 1 out of 12
Pollen 9.20 out of 12
Air Quality Not available.
Flu Activity Not available.
METAR KLAX 061553Z 03003KT 10SM CLR 16/M04 A3015 RMK AO2 SLP208 T01611039

More Conditions Fewer Conditions

Pressure 30.15 in
Visibility 10.0 miles
Clouds Clear
Dew Point 25 °F
Humidity 25%
Rainfall 0.00 in
Snow Depth Not available.
UV 1 out of 12
Pollen 9.20 out of 12
Air Quality Not available.
Flu Activity Not available.
METAR KLAX 061553Z 03003KT 10SM CLR 16/M04 A3015 RMK AO2 SLP208 T01611039

More Conditions Fewer Conditions

10-Day Weather Forecast

Almanac

Astronomy

Mar. 06, 2015 Rise Set
Actual Time
Civil Twilight
Nautical Twilight
Astronomical Twilight
Moon
Length of Visible Light
Length of Day
Tomorrow will be .
, % of the Moon is Illuminated

Today's Extremes

State Highs State Lows

Community

WunderPhotos

Upload Photos

1,803,327 photos uploaded!

WunderBlogs® & News

Nearby

Air Quality

  Air Quality AQ Index Pollutant
Not available.

Snow Depth

Station Depth Elevation

Earthquake Activity

City Distance Mag. Time & Date
Minimum magnitude displayed is 2.5.

Coastal Water Temperatures

Place Temperature

Nearby Weather Stations

Wind Advisory
Statement as of 3:20 AM PST on March 06, 2015

... Wind Advisory in effect until 2 PM PST this afternoon...

The National Weather Service in Los Angeles/Oxnard has issued a
Wind Advisory for the Los Angeles and Ventura County coast. This
advisory is in effect until 2 PM PST this afternoon.

* Winds... areas of northeast 15 to 25 mph with gusts to 35 mph.
The strongest winds will occur below passes and canyons.

* Timing... strongest winds during the late morning and early
afternoon on Friday.

* Impacts... gusty winds will make driving difficult... especially
for drivers of high profile vehicles.

Precautionary/preparedness actions...

When driving... use extra caution. Be prepared for sudden gusty
cross winds.